Deep Seas — ZCPR4 — position and weather

sailwx.info

Track history (hours):
 
Tides and Currents Weather Stations Pressure Air Temp Water Temp Dewpoint Dewpoint Depression Visibility Wind Speed Wind Dir Waves Ship Positions

Deep Seas

Last reported at 2015-Feb-16 21:28 UTC. Time now 2015-Mar-06 09:05 UTC.
Position N 01°10' E 103°47'.
Warning: this ship's position is 17 days out of date.

Length 225 m; draft 14.2 m.

Type: Cargo ship. MMSI: 319138000.

Date/timePositionNaut miles runAvg speedWind from/ knotsBaromVisibWave heightAir tempDewpointWater temp
2015-Feb-16 21:28N 01°10' E 103°47'1112.5
2015-Feb-16 20:34N 01°15' E 103°58'3 2.5
2015-Feb-16 19:28N 01°18' E 103°59'0 0.0
2015-Feb-16 18:28N 01°18' E 103°59'0 0.0
2015-Feb-16 17:10N 01°18' E 103°59'0 0.0
2015-Feb-16 16:25N 01°18' E 103°59'0 0.0
2015-Feb-16 15:28N 01°18' E 103°59'0 0.0
2015-Feb-16 14:28N 01°18' E 103°59'0 0.0
2015-Feb-16 13:16N 01°18' E 103°59'0 0.0
2015-Feb-16 12:25N 01°18' E 103°59'0 0.0
2015-Feb-16 11:22N 01°17' E 103°59'0 0.0
2015-Feb-16 10:16N 01°17' E 103°59'0 0.2
2015-Feb-16 09:28N 01°17' E 103°59'0 0.2
2015-Feb-16 08:04N 01°18' E 103°59'0 0.7
2015-Feb-16 07:33N 01°17' E 103°59'1 1.3
2015-Feb-16 06:32N 01°16' E 103°60'5 5.0
2015-Feb-16 05:31N 01°17' E 104°05'7 7.4
2015-Feb-16 04:31N 01°18' E 104°12'  
2015-Feb-13 03:30S 04°38' E 113°56'96 9.3
2015-Feb-12 17:15S 04°15' E 115°29'910.2
2015-Feb-12 16:24S 04°11' E 115°37'  
Track history (hours):
 
Tides and Currents Weather Stations Pressure Air Temp Water Temp Dewpoint Dewpoint Depression Visibility Wind Speed Wind Dir Waves Ship Positions

Deep Seas

Last reported at 2015-Feb-16 21:28 UTC. Time now 2015-Mar-06 09:05 UTC.
Position N 01°10' E 103°47'.
Warning: this ship's position is 17 days out of date.

Length 225 m; draft 14.2 m.

Type: Cargo ship. MMSI: 319138000.

Date/timePositionNaut miles runAvg speedWind from/ knotsBaromVisibWave heightAir tempDewpointWater temp
2015-Feb-16 21:28N 01°10' E 103°47'1112.5
2015-Feb-16 20:34N 01°15' E 103°58'3 2.5
2015-Feb-16 19:28N 01°18' E 103°59'0 0.0
2015-Feb-16 18:28N 01°18' E 103°59'0 0.0
2015-Feb-16 17:10N 01°18' E 103°59'0 0.0
2015-Feb-16 16:25N 01°18' E 103°59'0 0.0
2015-Feb-16 15:28N 01°18' E 103°59'0 0.0
2015-Feb-16 14:28N 01°18' E 103°59'0 0.0
2015-Feb-16 13:16N 01°18' E 103°59'0 0.0
2015-Feb-16 12:25N 01°18' E 103°59'0 0.0
2015-Feb-16 11:22N 01°17' E 103°59'0 0.0
2015-Feb-16 10:16N 01°17' E 103°59'0 0.2
2015-Feb-16 09:28N 01°17' E 103°59'0 0.2
2015-Feb-16 08:04N 01°18' E 103°59'0 0.7
2015-Feb-16 07:33N 01°17' E 103°59'1 1.3
2015-Feb-16 06:32N 01°16' E 103°60'5 5.0
2015-Feb-16 05:31N 01°17' E 104°05'7 7.4
2015-Feb-16 04:31N 01°18' E 104°12'  
2015-Feb-13 03:30S 04°38' E 113°56'96 9.3
2015-Feb-12 17:15S 04°15' E 115°29'910.2
2015-Feb-12 16:24S 04°11' E 115°37'  

Dump ship's entire track history